Time;durP1;ratioP1;P1;durP2;ratioP2;P2;SDS_P1;SDS_P2;PMS_P1;PMS_P2;Temp;Humidity;BMP_temperature;BMP_pressure;BME280_temperature;BME280_humidity;BME280_pressure;Samples;Min_cycle;Max_cycle;Signal;HPM_P1;HPM_P2
2023/12/14 00:01:13;;;;;;;29.85;17.33;;;8.60;81.50;;;;;;6219596;23;20008;-64
2023/12/14 00:03:44;;;;;;;27.85;16.05;;;8.70;81.50;;;;;;6219675;23;20000;-64
2023/12/14 00:06:11;;;;;;;32.03;18.42;;;8.70;81.50;;;;;;6219890;23;20012;-64
2023/12/14 00:08:38;;;;;;;26.35;15.55;;;8.80;81.60;;;;;;6219506;23;20001;-64
2023/12/14 00:11:07;;;;;;;22.67;13.65;;;8.70;81.40;;;;;;6219571;23;20007;-64
2023/12/14 00:13:34;;;;;;;23.52;13.98;;;8.80;81.40;;;;;;6219520;23;20012;-64
2023/12/14 00:16:00;;;;;;;22.40;14.15;;;8.80;81.40;;;;;;6219469;23;20004;-64
2023/12/14 00:18:26;;;;;;;22.60;13.20;;;8.80;81.30;;;;;;6219544;23;20001;-64
2023/12/14 00:20:53;;;;;;;17.35;11.63;;;8.80;81.20;;;;;;6219418;23;20008;-64
2023/12/14 00:23:20;;;;;;;17.23;11.57;;;8.80;81.30;;;;;;6219321;23;20015;-64
2023/12/14 00:25:46;;;;;;;19.15;12.48;;;8.80;81.20;;;;;;6219355;23;20019;-64
2023/12/14 00:28:12;;;;;;;21.52;12.90;;;8.80;81.30;;;;;;6219410;23;20001;-64
2023/12/14 00:30:38;;;;;;;18.23;12.27;;;8.80;81.20;;;;;;6219257;23;20004;-64
2023/12/14 00:33:04;;;;;;;18.63;11.60;;;8.80;81.30;;;;;;6219309;23;20035;-64
2023/12/14 00:35:30;;;;;;;19.13;12.38;;;8.80;81.20;;;;;;6219630;23;20075;-64
2023/12/14 00:37:56;;;;;;;18.20;11.80;;;8.80;81.20;;;;;;6219248;23;20008;-64
2023/12/14 00:40:22;;;;;;;17.13;11.77;;;8.80;81.20;;;;;;6219275;23;20298;-64
2023/12/14 00:42:48;;;;;;;21.85;12.80;;;8.80;81.10;;;;;;6219267;23;20015;-64
2023/12/14 00:45:14;;;;;;;19.02;12.25;;;8.80;81.10;;;;;;6219898;23;20004;-64
2023/12/14 00:47:39;;;;;;;21.08;12.93;;;8.80;81.00;;;;;;6219125;23;20426;-64
2023/12/14 00:50:06;;;;;;;20.13;12.10;;;8.70;80.90;;;;;;6219394;23;20000;-64
2023/12/14 00:52:32;;;;;;;21.63;12.32;;;8.70;80.90;;;;;;6219060;23;20295;-64
2023/12/14 00:54:57;;;;;;;23.65;13.73;;;8.60;80.90;;;;;;6219817;23;20007;-64
2023/12/14 00:57:23;;;;;;;21.02;12.63;;;8.70;80.90;;;;;;6187504;23;20020;-64
2023/12/14 00:59:50;;;;;;;22.58;13.52;;;8.60;81.00;;;;;;6189316;23;20020;-64
2023/12/14 01:02:16;;;;;;;16.83;11.18;;;8.60;80.90;;;;;;6189317;23;20303;-64
2023/12/14 01:04:42;;;;;;;15.70;10.07;;;8.60;80.70;;;;;;6189354;23;20394;-64
2023/12/14 01:07:08;;;;;;;17.30;11.23;;;8.50;80.60;;;;;;6188927;23;20117;-64
2023/12/14 01:09:34;;;;;;;18.40;11.23;;;8.50;80.70;;;;;;6188836;23;20094;-64
2023/12/14 01:12:00;;;;;;;19.35;11.88;;;8.40;80.70;;;;;;6188952;23;20008;-64
2023/12/14 01:14:26;;;;;;;16.65;10.25;;;8.40;80.70;;;;;;6189503;23;19997;-64
2023/12/14 01:16:51;;;;;;;16.63;10.27;;;8.40;80.60;;;;;;6188740;23;20048;-64
2023/12/14 01:19:17;;;;;;;16.15;10.18;;;8.30;80.60;;;;;;6189388;23;20044;-64
2023/12/14 01:21:43;;;;;;;22.13;10.73;;;8.30;80.50;;;;;;6188749;23;20039;-64
2023/12/14 01:24:09;;;;;;;16.23;9.82;;;8.20;80.30;;;;;;6189477;23;20075;-64
2023/12/14 01:26:35;;;;;;;17.92;10.60;;;8.10;80.40;;;;;;6188698;23;20346;-64
2023/12/14 01:29:01;;;;;;;16.33;10.77;;;8.10;80.50;;;;;;6188488;23;20016;-64
2023/12/14 01:31:27;;;;;;;15.50;9.88;;;8.00;80.60;;;;;;6188988;23;20029;-64
2023/12/14 01:33:53;;;;;;;15.55;10.40;;;8.10;80.70;;;;;;6189370;23;20001;-64
2023/12/14 01:36:23;;;;;;;13.45;9.70;;;8.00;80.50;;;;;;6188872;23;20068;-64
2023/12/14 01:38:50;;;;;;;16.83;10.95;;;7.90;80.50;;;;;;6188972;23;20005;-64
2023/12/14 01:41:16;;;;;;;16.13;10.48;;;7.90;80.30;;;;;;6189011;23;20005;-64
2023/12/14 01:43:42;;;;;;;15.88;10.45;;;7.90;80.60;;;;;;6188575;23;20347;-64
2023/12/14 01:46:08;;;;;;;14.35;9.93;;;7.90;80.60;;;;;;6188776;23;20033;-64
2023/12/14 01:48:34;;;;;;;20.77;12.07;;;7.90;80.50;;;;;;6189156;23;20060;-64
2023/12/14 01:51:00;;;;;;;14.55;9.13;;;7.90;80.40;;;;;;6188908;23;20028;-64
2023/12/14 01:53:26;;;;;;;15.70;10.23;;;7.80;80.40;;;;;;6188938;23;20005;-64
2023/12/14 01:55:52;;;;;;;16.58;10.60;;;7.80;80.50;;;;;;6188844;23;20300;-64
2023/12/14 01:58:18;;;;;;;14.73;9.68;;;7.80;80.60;;;;;;6218550;23;20394;-64
2023/12/14 02:01:04;;;;;;;14.20;9.27;;;7.80;80.60;;;;;;6218831;23;20004;-64
2023/12/14 02:03:30;;;;;;;17.42;10.27;;;7.70;80.70;;;;;;6192356;23;20088;-64
2023/12/14 02:05:57;;;;;;;14.85;9.30;;;7.70;80.70;;;;;;6218402;23;20035;-64
2023/12/14 02:08:24;;;;;;;15.25;10.10;;;7.70;80.70;;;;;;6218259;23;20032;-64
2023/12/14 02:10:50;;;;;;;13.02;9.13;;;7.70;80.60;;;;;;6192200;23;20442;-64
2023/12/14 02:13:16;;;;;;;14.52;9.65;;;7.60;80.70;;;;;;6218406;23;20021;-64
2023/12/14 02:15:42;;;;;;;13.85;9.88;;;7.70;80.70;;;;;;6219163;23;20322;-64
2023/12/14 02:18:08;;;;;;;14.15;9.90;;;7.70;80.70;;;;;;6218394;23;20100;-64
2023/12/14 02:20:34;;;;;;;15.07;10.15;;;7.60;80.70;;;;;;6218670;23;20004;-64
2023/12/14 02:23:01;;;;;;;16.63;10.70;;;7.60;80.70;;;;;;6192062;23;20031;-64
2023/12/14 02:25:27;;;;;;;14.45;9.73;;;7.60;80.70;;;;;;6218644;23;20079;-64
2023/12/14 02:27:53;;;;;;;14.00;9.38;;;7.60;80.70;;;;;;6218561;23;20019;-64
2023/12/14 02:30:19;;;;;;;16.15;10.32;;;7.60;80.60;;;;;;6218547;23;20079;-64
2023/12/14 02:32:45;;;;;;;16.45;9.45;;;7.60;80.60;;;;;;6218296;23;19997;-64
2023/12/14 02:35:11;;;;;;;14.65;8.95;;;7.60;80.70;;;;;;6218262;23;20051;-64
2023/12/14 02:37:37;;;;;;;14.95;9.63;;;7.60;80.90;;;;;;6218239;23;20306;-64
2023/12/14 02:40:04;;;;;;;13.85;8.95;;;7.60;80.90;;;;;;6218109;23;20078;-64
2023/12/14 02:42:31;;;;;;;15.98;9.98;;;7.70;81.00;;;;;;6218212;23;20000;-64
2023/12/14 02:44:57;;;;;;;14.88;10.27;;;7.70;80.90;;;;;;6191970;23;20005;-64
2023/12/14 02:47:23;;;;;;;13.98;9.35;;;7.70;80.90;;;;;;6218198;23;20087;-64
2023/12/14 02:49:49;;;;;;;15.10;9.18;;;7.70;80.80;;;;;;6192390;23;20268;-64
2023/12/14 02:52:15;;;;;;;18.52;11.00;;;7.70;80.90;;;;;;6218173;23;20124;-64
2023/12/14 02:54:41;;;;;;;16.33;10.38;;;7.70;81.00;;;;;;6218807;23;20027;-64
2023/12/14 02:57:07;;;;;;;16.63;9.90;;;7.70;81.00;;;;;;6217944;23;20315;-64
2023/12/14 02:59:33;;;;;;;13.90;9.07;;;7.70;80.90;;;;;;6218471;23;20004;-64
2023/12/14 03:01:59;;;;;;;15.77;10.30;;;7.70;80.50;;;;;;6218158;23;20395;-64
2023/12/14 03:04:25;;;;;;;15.85;9.85;;;7.60;80.40;;;;;;6218439;23;20004;-64
2023/12/14 03:06:51;;;;;;;14.05;9.25;;;7.60;80.30;;;;;;6218155;23;20005;-64
2023/12/14 03:09:18;;;;;;;13.65;8.88;;;7.50;80.40;;;;;;6218659;23;20004;-64
2023/12/14 03:11:46;;;;;;;11.80;8.23;;;7.50;80.30;;;;;;6218099;23;20007;-64
2023/12/14 03:14:12;;;;;;;12.68;8.70;;;7.50;80.10;;;;;;6191849;23;20000;-64
2023/12/14 03:16:38;;;;;;;16.33;9.60;;;7.40;80.10;;;;;;6217955;23;20015;-64
2023/12/14 03:19:04;;;;;;;20.13;10.20;;;7.40;80.30;;;;;;6191773;23;20256;-64
2023/12/14 03:21:31;;;;;;;15.05;9.02;;;7.40;80.40;;;;;;6217888;23;20024;-64
2023/12/14 03:23:57;;;;;;;23.27;10.75;;;7.40;80.50;;;;;;6218075;23;20004;-64
2023/12/14 03:26:22;;;;;;;25.08;9.80;;;7.30;80.00;;;;;;6218294;23;20080;-64
2023/12/14 03:28:49;;;;;;;14.80;8.63;;;7.30;79.80;;;;;;6218230;23;20102;-64
2023/12/14 03:31:15;;;;;;;18.25;9.50;;;7.20;80.00;;;;;;6218029;23;20038;-64
2023/12/14 03:33:42;;;;;;;19.20;10.27;;;7.20;80.10;;;;;;6218041;23;19997;-64
2023/12/14 03:36:08;;;;;;;22.52;9.82;;;7.10;80.20;;;;;;6217924;23;20004;-64
2023/12/14 03:38:34;;;;;;;12.68;8.35;;;7.10;80.30;;;;;;6217984;23;20001;-64
2023/12/14 03:41:00;;;;;;;16.35;8.40;;;7.00;80.20;;;;;;6218279;23;20452;-64
2023/12/14 03:43:26;;;;;;;23.33;8.48;;;7.00;80.10;;;;;;6218285;23;20001;-64
2023/12/14 03:45:53;;;;;;;15.38;9.10;;;6.90;80.20;;;;;;6218167;23;20287;-64
2023/12/14 03:48:19;;;;;;;23.73;9.93;;;6.90;80.40;;;;;;6217829;23;20272;-64
2023/12/14 03:50:45;;;;;;;21.25;9.40;;;6.90;80.50;;;;;;6217820;23;20008;-64
2023/12/14 03:53:11;;;;;;;17.92;9.75;;;6.90;80.50;;;;;;6218742;23;19998;-64
2023/12/14 03:55:37;;;;;;;14.50;9.00;;;6.90;80.40;;;;;;6219857;23;20004;-64
2023/12/14 03:58:03;;;;;;;17.48;9.25;;;6.90;80.50;;;;;;6219511;23;20318;-64
2023/12/14 04:00:28;;;;;;;16.55;8.32;;;6.90;80.40;;;;;;6219963;23;20276;-64
2023/12/14 04:02:54;;;;;;;12.50;8.18;;;6.80;80.20;;;;;;6219632;23;20272;-64
2023/12/14 04:05:21;;;;;;;12.98;7.90;;;6.80;80.10;;;;;;6219998;23;20039;-64
2023/12/14 04:07:47;;;;;;;12.90;8.13;;;6.70;80.00;;;;;;6219822;23;20092;-64
2023/12/14 04:10:13;;;;;;;13.10;8.13;;;6.60;80.20;;;;;;6219484;23;20339;-64
2023/12/14 04:12:40;;;;;;;13.60;7.80;;;6.60;80.20;;;;;;6219851;23;20072;-64
2023/12/14 04:15:07;;;;;;;12.63;7.40;;;6.50;80.00;;;;;;6219391;23;20399;-64
2023/12/14 04:17:34;;;;;;;9.15;7.43;;;6.50;79.80;;;;;;6220401;23;20080;-64
2023/12/14 04:20:00;;;;;;;10.52;7.43;;;6.40;79.80;;;;;;6219495;23;20043;-64
2023/12/14 04:22:26;;;;;;;13.85;8.20;;;6.40;79.90;;;;;;6219467;23;20398;-64
2023/12/14 04:24:53;;;;;;;11.80;7.50;;;6.30;80.10;;;;;;6220037;23;20028;-64
2023/12/14 04:27:18;;;;;;;11.70;7.15;;;6.30;80.10;;;;;;6219349;23;20005;-64
2023/12/14 04:29:44;;;;;;;9.90;6.30;;;6.30;80.20;;;;;;6219276;23;20026;-64
2023/12/14 04:32:11;;;;;;;11.05;7.57;;;6.30;80.30;;;;;;6219346;23;19996;-64
2023/12/14 04:34:37;;;;;;;10.43;7.20;;;6.30;80.20;;;;;;6219640;23;20005;-64
2023/12/14 04:37:03;;;;;;;10.80;7.57;;;6.30;80.30;;;;;;6219568;23;20459;-64
2023/12/14 04:39:28;;;;;;;12.40;8.27;;;6.20;80.20;;;;;;6219265;23;20386;-64
2023/12/14 04:41:54;;;;;;;11.20;8.18;;;6.20;80.20;;;;;;6219557;23;20051;-64
2023/12/14 04:44:21;;;;;;;11.15;8.43;;;6.20;80.10;;;;;;6219582;23;20008;-64
2023/12/14 04:46:50;;;;;;;9.98;7.32;;;6.20;79.70;;;;;;6219295;23;20407;-64
2023/12/14 04:49:16;;;;;;;13.65;8.20;;;6.10;79.50;;;;;;6219367;23;20016;-63
2023/12/14 04:51:43;;;;;;;12.60;8.02;;;6.10;79.40;;;;;;6219169;23;20000;-64
2023/12/14 04:54:09;;;;;;;13.20;8.70;;;6.10;79.60;;;;;;6219148;23;20418;-63
2023/12/14 04:56:35;;;;;;;14.27;9.57;;;6.00;79.70;;;;;;6219174;23;20036;-63
2023/12/14 04:59:01;;;;;;;14.68;10.30;;;6.00;80.00;;;;;;6219150;23;20030;-63
2023/12/14 05:01:27;;;;;;;16.17;11.02;;;5.90;80.20;;;;;;6219385;23;20071;-63
2023/12/14 05:03:53;;;;;;;16.33;10.43;;;5.90;80.40;;;;;;6218968;23;20019;-63
2023/12/14 05:06:19;;;;;;;16.00;9.43;;;5.90;80.30;;;;;;6218948;23;20005;-63
2023/12/14 05:08:45;;;;;;;16.60;11.25;;;5.90;80.30;;;;;;6219223;23;20059;-63
2023/12/14 05:11:13;;;;;;;16.90;11.18;;;5.90;80.40;;;;;;6219640;23;20000;-63
2023/12/14 05:13:40;;;;;;;17.73;11.48;;;5.90;80.30;;;;;;6219284;23;20004;-63
2023/12/14 05:16:06;;;;;;;26.02;11.35;;;5.90;80.50;;;;;;6219376;23;20076;-64
2023/12/14 05:18:32;;;;;;;15.98;11.23;;;5.90;80.40;;;;;;6218859;23;20318;-64
2023/12/14 05:20:59;;;;;;;18.77;11.73;;;5.80;80.40;;;;;;6218904;23;20079;-64
2023/12/14 05:23:25;;;;;;;22.58;11.85;;;5.70;80.10;;;;;;6218882;23;20003;-64
2023/12/14 05:25:51;;;;;;;16.75;11.65;;;5.60;80.00;;;;;;6219133;23;20442;-64
2023/12/14 05:28:17;;;;;;;19.63;13.02;;;5.60;80.00;;;;;;6218871;23;20035;-64
2023/12/14 05:30:43;;;;;;;17.77;11.88;;;5.50;80.10;;;;;;6219016;23;20009;-64
2023/12/14 05:33:09;;;;;;;16.73;11.25;;;5.50;80.20;;;;;;6218760;23;20083;-64
2023/12/14 05:35:35;;;;;;;16.52;11.75;;;5.50;80.40;;;;;;6218735;23;20406;-64
2023/12/14 05:38:01;;;;;;;16.35;11.30;;;5.50;80.50;;;;;;6219045;23;20012;-64
2023/12/14 05:40:26;;;;;;;16.02;11.35;;;5.50;80.50;;;;;;6219039;23;20378;-64
2023/12/14 05:42:52;;;;;;;18.38;12.32;;;5.50;80.50;;;;;;6218699;23;20008;-64
2023/12/14 05:45:18;;;;;;;16.88;11.68;;;5.50;80.60;;;;;;6218677;23;20028;-64
2023/12/14 05:47:44;;;;;;;20.58;12.30;;;5.50;80.80;;;;;;6218548;23;20005;-64
2023/12/14 05:50:11;;;;;;;20.38;11.63;;;5.50;80.80;;;;;;6192826;23;20008;-64
2023/12/14 05:52:37;;;;;;;15.27;11.15;;;5.50;80.60;;;;;;6218606;23;20019;-64
2023/12/14 05:55:04;;;;;;;23.15;12.88;;;5.50;80.60;;;;;;6219254;23;20001;-64
2023/12/14 05:57:30;;;;;;;20.75;13.13;;;5.40;80.50;;;;;;6218154;23;20066;-64
2023/12/14 05:59:56;;;;;;;18.65;11.93;;;5.40;80.30;;;;;;6192928;23;20055;-64
2023/12/14 06:02:22;;;;;;;22.02;12.57;;;5.40;80.50;;;;;;6218718;23;20079;-64
2023/12/14 06:04:48;;;;;;;16.42;11.52;;;5.30;80.50;;;;;;6218871;23;20331;-64
2023/12/14 06:07:15;;;;;;;16.52;11.32;;;5.40;80.60;;;;;;6218736;23;20007;-64
2023/12/14 06:09:41;;;;;;;19.13;13.10;;;5.30;80.30;;;;;;6218203;23;20303;-64
2023/12/14 06:12:07;;;;;;;18.38;12.30;;;5.30;80.50;;;;;;6218692;23;20008;-64
2023/12/14 06:14:33;;;;;;;18.40;12.98;;;5.30;80.50;;;;;;6219059;23;20020;-64
2023/12/14 06:16:59;;;;;;;21.27;14.57;;;5.20;79.70;;;;;;6218095;23;20011;-64
2023/12/14 06:19:25;;;;;;;18.23;12.25;;;5.20;79.80;;;;;;6219039;23;20005;-64
2023/12/14 06:21:52;;;;;;;16.98;12.20;;;5.10;79.90;;;;;;6218341;23;20028;-64
2023/12/14 06:24:18;;;;;;;20.70;11.75;;;5.20;80.30;;;;;;6218829;23;20004;-64
2023/12/14 06:26:45;;;;;;;21.35;12.48;;;5.10;80.30;;;;;;6218502;23;20036;-64
2023/12/14 06:29:11;;;;;;;18.10;12.77;;;5.10;80.40;;;;;;6218905;23;20004;-64
2023/12/14 06:31:38;;;;;;;17.67;12.00;;;5.10;80.40;;;;;;6218648;23;20410;-64
2023/12/14 06:34:07;;;;;;;16.33;12.10;;;5.10;80.40;;;;;;6218300;23;20005;-64
2023/12/14 06:36:34;;;;;;;21.20;13.02;;;5.10;80.40;;;;;;6218740;23;20083;-64
2023/12/14 06:39:01;;;;;;;26.10;13.27;;;5.10;80.40;;;;;;6218264;23;20004;-64
2023/12/14 06:41:28;;;;;;;40.50;18.70;;;5.00;80.10;;;;;;6218251;23;20059;-64
2023/12/14 06:43:55;;;;;;;30.73;15.90;;;5.00;80.10;;;;;;6218449;23;20016;-64
2023/12/14 06:46:21;;;;;;;34.38;15.07;;;5.00;80.10;;;;;;6218153;23;20054;-64
2023/12/14 06:48:49;;;;;;;35.78;17.25;;;4.90;80.20;;;;;;6218104;23;20008;-64
2023/12/14 06:51:15;;;;;;;39.05;18.08;;;5.00;80.20;;;;;;6218039;23;20047;-64
2023/12/14 06:53:43;;;;;;;38.20;17.33;;;5.00;79.90;;;;;;6218475;23;20001;-64
2023/12/14 06:56:10;;;;;;;29.42;14.57;;;4.90;79.80;;;;;;6218141;23;19997;-64
2023/12/14 06:58:40;;;;;;;29.73;14.00;;;4.90;79.60;;;;;;6218497;23;20009;-64
2023/12/14 07:01:07;;;;;;;29.05;15.23;;;4.90;79.90;;;;;;6218174;23;20418;-64
2023/12/14 07:03:33;;;;;;;27.55;15.85;;;4.90;80.10;;;;;;6192913;23;20085;-64
2023/12/14 07:05:59;;;;;;;26.17;14.18;;;4.90;80.20;;;;;;6218182;23;20008;-64
2023/12/14 07:08:25;;;;;;;22.17;14.60;;;4.90;80.20;;;;;;6218167;23;20310;-64
2023/12/14 07:10:51;;;;;;;32.90;19.00;;;4.90;80.40;;;;;;6218098;23;20015;-64
2023/12/14 07:13:17;;;;;;;23.83;16.33;;;5.00;80.30;;;;;;6218237;23;20090;-64
2023/12/14 07:15:43;;;;;;;21.70;15.25;;;5.00;80.30;;;;;;6217816;23;19997;-64
2023/12/14 07:18:09;;;;;;;24.30;15.68;;;5.10;80.10;;;;;;6218380;23;20001;-64
2023/12/14 07:20:35;;;;;;;25.17;16.33;;;5.10;79.50;;;;;;6218058;23;20015;-64
2023/12/14 07:23:01;;;;;;;26.98;17.23;;;5.10;79.90;;;;;;6218629;23;20079;-64
2023/12/14 07:25:27;;;;;;;27.55;17.00;;;5.10;79.90;;;;;;6218158;23;20009;-64
2023/12/14 07:27:54;;;;;;;24.67;15.68;;;5.10;79.90;;;;;;6218700;23;20004;-64
2023/12/14 07:30:20;;;;;;;24.10;15.50;;;5.10;79.90;;;;;;6220497;23;20001;-64
2023/12/14 07:32:46;;;;;;;24.70;15.95;;;5.10;80.10;;;;;;6219988;23;20054;-64
2023/12/14 07:35:12;;;;;;;25.58;16.67;;;5.20;79.80;;;;;;6219865;23;20076;-64
2023/12/14 07:37:38;;;;;;;29.75;19.75;;;5.20;79.80;;;;;;6226544;22;20068;-69
2023/12/14 07:40:05;;;;;;;26.83;15.98;;;5.20;79.80;;;;;;6312224;22;20011;-67
2023/12/14 07:42:31;;;;;;;26.05;17.40;;;5.20;79.70;;;;;;6311944;22;20072;-67
2023/12/14 07:44:57;;;;;;;25.92;17.40;;;5.20;79.60;;;;;;6284862;22;20308;-67
2023/12/14 07:47:23;;;;;;;28.38;17.15;;;5.30;79.80;;;;;;6306632;22;20405;-69
2023/12/14 07:49:49;;;;;;;31.67;19.40;;;5.30;79.70;;;;;;6305294;22;20300;-66
2023/12/14 07:52:15;;;;;;;30.10;18.40;;;5.30;79.90;;;;;;6342934;22;19995;-66
2023/12/14 07:54:41;;;;;;;36.60;20.65;;;5.40;79.90;;;;;;6342965;22;19995;-68
2023/12/14 07:57:07;;;;;;;36.95;21.48;;;5.40;79.90;;;;;;6343083;22;20002;-65
2023/12/14 07:59:33;;;;;;;31.90;18.92;;;5.40;80.00;;;;;;6343042;22;20007;-67
2023/12/14 08:01:59;;;;;;;34.83;21.52;;;5.50;80.10;;;;;;6316785;22;20022;-69
2023/12/14 08:04:25;;;;;;;43.05;20.85;;;5.50;80.10;;;;;;6342912;22;20063;-69
2023/12/14 08:06:51;;;;;;;37.50;19.05;;;5.50;80.10;;;;;;6342787;22;20439;-68
2023/12/14 08:09:17;;;;;;;30.75;17.23;;;5.60;80.20;;;;;;6342721;22;20041;-66
2023/12/14 08:11:43;;;;;;;37.70;18.35;;;5.60;80.30;;;;;;6343029;22;20003;-67
2023/12/14 08:14:09;;;;;;;31.95;17.55;;;5.60;80.60;;;;;;6342791;22;20447;-66
2023/12/14 08:16:35;;;;;;;35.75;18.50;;;5.60;80.80;;;;;;6342755;22;19999;-67
2023/12/14 08:19:00;;;;;;;28.40;17.42;;;5.60;80.80;;;;;;6343047;22;20010;-67
2023/12/14 08:21:27;;;;;;;26.35;16.25;;;5.80;80.80;;;;;;6342680;22;20005;-66
2023/12/14 08:23:53;;;;;;;19.65;13.15;;;5.80;81.00;;;;;;6342632;22;20002;-66
2023/12/14 08:26:18;;;;;;;23.05;14.43;;;5.90;81.10;;;;;;6343280;22;20083;-68
2023/12/14 08:28:44;;;;;;;22.25;12.60;;;6.00;81.10;;;;;;6342544;22;20031;-66
2023/12/14 08:31:11;;;;;;;25.23;14.75;;;6.10;81.00;;;;;;6342669;22;19998;-67
2023/12/14 08:33:37;;;;;;;26.38;15.40;;;6.20;81.30;;;;;;6342483;22;19998;-67
2023/12/14 08:36:05;;;;;;;24.95;13.45;;;6.40;81.20;;;;;;6316546;22;20023;-69
2023/12/14 08:38:31;;;;;;;23.40;13.32;;;6.30;81.00;;;;;;6342673;22;19999;-67
2023/12/14 08:40:57;;;;;;;21.25;13.15;;;6.30;80.80;;;;;;6343178;22;20010;-66
2023/12/14 08:43:23;;;;;;;23.88;14.02;;;6.40;80.90;;;;;;6342521;22;20399;-66
2023/12/14 08:45:49;;;;;;;25.25;15.38;;;6.30;80.90;;;;;;6342568;22;19998;-67
2023/12/14 08:48:15;;;;;;;24.88;14.73;;;6.30;81.00;;;;;;6342764;22;20026;-68
2023/12/14 08:50:41;;;;;;;24.55;12.25;;;6.40;81.20;;;;;;6316368;22;20473;-67
2023/12/14 08:53:08;;;;;;;24.50;12.60;;;6.40;81.40;;;;;;6315305;22;20018;-67
2023/12/14 08:55:33;;;;;;;20.25;11.35;;;6.50;81.30;;;;;;6342307;22;20304;-67
2023/12/14 08:58:04;;;;;;;25.52;12.50;;;6.60;81.30;;;;;;6342280;22;20003;-65
2023/12/14 09:00:30;;;;;;;20.67;11.25;;;6.70;81.30;;;;;;6342514;22;20400;-67
2023/12/14 09:02:56;;;;;;;22.38;12.07;;;6.80;81.30;;;;;;6342189;22;20009;-68
2023/12/14 09:05:22;;;;;;;20.90;11.35;;;6.80;81.20;;;;;;6342372;22;20062;-67
2023/12/14 09:10:24;;;;;;;18.00;11.50;;;7.00;81.40;;;;;;6258303;22;20030;-69
2023/12/14 09:12:50;;;;;;;23.50;12.40;;;7.10;81.30;;;;;;6342689;22;20261;-69
2023/12/14 09:15:16;;;;;;;20.35;11.80;;;7.10;81.30;;;;;;6342223;22;20418;-69
2023/12/14 09:17:42;;;;;;;19.77;11.68;;;7.30;81.30;;;;;;6342283;22;20014;-69
2023/12/14 09:20:09;;;;;;;19.95;11.77;;;7.30;81.50;;;;;;6342801;22;20036;-68
2023/12/14 09:22:35;;;;;;;21.13;12.23;;;7.40;81.40;;;;;;6342125;22;19996;-69
2023/12/14 09:25:01;;;;;;;18.65;11.77;;;7.50;81.30;;;;;;6342885;22;20076;-69
2023/12/14 09:27:27;;;;;;;21.10;11.95;;;7.60;81.30;;;;;;6342541;22;19994;-68
2023/12/14 09:29:53;;;;;;;18.48;10.98;;;7.70;81.40;;;;;;6314858;22;20010;-67
2023/12/14 09:32:20;;;;;;;17.85;10.52;;;7.80;81.40;;;;;;6342424;22;19995;-69
2023/12/14 09:34:46;;;;;;;19.75;11.25;;;7.90;81.20;;;;;;6342754;22;19995;-67
2023/12/14 09:37:14;;;;;;;20.52;11.32;;;8.00;81.20;;;;;;6318347;22;20076;-66
2023/12/14 09:39:40;;;;;;;19.00;10.93;;;8.10;81.00;;;;;;6342401;22;20006;-66
2023/12/14 09:42:10;;;;;;;20.67;11.27;;;8.20;80.80;;;;;;6342707;22;20372;-67
2023/12/14 09:44:37;;;;;;;18.33;11.43;;;8.30;80.80;;;;;;6342374;22;20006;-67
2023/12/14 09:47:04;;;;;;;18.23;10.23;;;8.40;80.80;;;;;;6342209;22;19995;-68
2023/12/14 09:49:30;;;;;;;25.13;12.70;;;8.50;80.70;;;;;;6342144;22;20384;-68
2023/12/14 09:51:57;;;;;;;23.08;12.00;;;8.60;80.70;;;;;;6341984;22;20005;-67
2023/12/14 09:54:23;;;;;;;21.40;12.30;;;8.70;80.70;;;;;;6342607;22;19999;-68
2023/12/14 09:56:49;;;;;;;22.95;12.75;;;8.90;80.70;;;;;;6275451;22;20067;-68
2023/12/14 09:59:16;;;;;;;23.90;13.07;;;8.90;80.40;;;;;;6341950;22;20002;-67
2023/12/14 10:01:42;;;;;;;25.50;13.15;;;9.00;80.40;;;;;;6342272;22;20449;-68
2023/12/14 10:04:09;;;;;;;26.92;13.68;;;9.10;80.40;;;;;;6341886;22;20010;-67
2023/12/14 10:06:35;;;;;;;24.48;12.77;;;9.20;80.30;;;;;;6341765;22;20001;-67
2023/12/14 10:09:01;;;;;;;25.20;12.48;;;9.30;80.30;;;;;;6314349;22;20007;-67
2023/12/14 10:11:27;;;;;;;20.00;11.20;;;9.40;80.30;;;;;;6342146;22;19998;-68
2023/12/14 10:13:53;;;;;;;25.42;13.45;;;9.50;80.20;;;;;;6342136;22;19994;-68
2023/12/14 10:16:33;;;;;;;28.05;13.02;;;9.60;80.20;;;;;;6341568;22;20388;-67
2023/12/14 10:19:00;;;;;;;27.30;13.23;;;9.70;79.90;;;;;;6341720;22;20003;-67
2023/12/14 10:21:27;;;;;;;29.95;14.35;;;9.80;80.00;;;;;;6342255;22;20006;-68
2023/12/14 10:23:56;;;;;;;31.63;14.73;;;9.90;80.00;;;;;;6342576;22;19999;-67
2023/12/14 10:26:25;;;;;;;33.15;14.80;;;9.90;79.80;;;;;;6343110;22;20073;-67
2023/12/14 10:28:52;;;;;;;32.53;14.15;;;10.00;79.70;;;;;;6342671;22;20003;-68
2023/12/14 10:31:22;;;;;;;24.17;12.45;;;10.10;79.70;;;;;;6342007;22;20064;-68
2023/12/14 10:33:48;;;;;;;26.02;12.85;;;10.20;79.70;;;;;;6341971;22;20010;-68
2023/12/14 10:36:20;;;;;;;26.27;12.98;;;10.30;79.60;;;;;;6341860;22;20003;-69
2023/12/14 10:38:50;;;;;;;25.98;12.57;;;10.40;79.30;;;;;;6341589;22;20002;-69
2023/12/14 10:41:17;;;;;;;24.63;11.50;;;10.50;79.30;;;;;;6341949;22;20006;-68
2023/12/14 10:43:47;;;;;;;21.48;11.55;;;10.60;79.30;;;;;;6341496;22;20003;-68
2023/12/14 10:46:14;;;;;;;18.80;10.32;;;10.70;79.20;;;;;;6341469;22;20010;-68
2023/12/14 10:48:43;;;;;;;17.67;10.43;;;10.80;78.90;;;;;;6314480;22;20389;-67
2023/12/14 10:51:12;;;;;;;20.65;11.00;;;10.90;78.80;;;;;;6341858;22;20055;-68
2023/12/14 10:53:39;;;;;;;16.58;9.63;;;10.90;78.60;;;;;;6341438;22;20005;-67
2023/12/14 10:56:10;;;;;;;15.55;9.23;;;11.00;78.60;;;;;;6341566;22;20005;-68
2023/12/14 10:58:53;;;;;;;18.65;9.93;;;11.10;78.50;;;;;;6341073;22;20011;-68
2023/12/14 11:01:21;;;;;;;18.55;10.85;;;11.20;78.40;;;;;;6342062;22;20052;-69
2023/12/14 11:03:49;;;;;;;15.27;9.02;;;11.30;78.30;;;;;;6316983;22;20026;-68
2023/12/14 11:06:24;;;;;;;16.27;9.35;;;11.40;78.30;;;;;;6317319;22;20030;-67
2023/12/14 11:08:55;;;;;;;14.27;8.50;;;11.50;78.00;;;;;;6343609;22;20014;-68
2023/12/14 11:11:21;;;;;;;13.25;8.32;;;11.60;77.90;;;;;;6278365;22;20029;-69
2023/12/14 11:13:53;;;;;;;16.00;8.55;;;11.60;78.00;;;;;;6312791;22;20039;-67
2023/12/14 11:16:23;;;;;;;12.30;7.75;;;11.80;77.70;;;;;;6312529;22;20023;-68
2023/12/14 11:24:19;;;;;;;10.40;6.75;;;12.10;77.10;;;;;;6306558;22;19914;-65
2023/12/14 11:26:45;;;;;;;10.90;7.20;;;12.10;76.60;;;;;;6343086;22;19998;-65
2023/12/14 11:29:12;;;;;;;12.70;7.38;;;12.20;76.40;;;;;;6342939;22;20018;-65
2023/12/14 11:31:40;;;;;;;15.52;9.13;;;12.30;76.30;;;;;;6343678;22;20026;-65
2023/12/14 11:34:07;;;;;;;14.23;8.80;;;12.40;76.20;;;;;;6315603;22;20086;-65
2023/12/14 11:36:33;;;;;;;14.15;8.30;;;12.40;76.00;;;;;;6343648;22;19994;-65
2023/12/14 11:38:59;;;;;;;13.30;8.55;;;12.50;75.80;;;;;;6342982;22;19999;-65
2023/12/14 11:41:25;;;;;;;15.05;8.93;;;12.50;75.70;;;;;;6342916;22;20361;-65
2023/12/14 11:43:51;;;;;;;15.13;8.70;;;12.60;75.30;;;;;;6343131;22;20097;-65
2023/12/14 11:46:18;;;;;;;13.90;8.02;;;12.60;75.20;;;;;;6343139;22;19998;-65
2023/12/14 11:48:45;;;;;;;12.63;7.97;;;12.70;75.00;;;;;;6343398;22;20027;-65
2023/12/14 11:51:12;;;;;;;11.73;7.10;;;12.70;75.10;;;;;;6342787;22;20003;-65
2023/12/14 11:53:38;;;;;;;12.25;7.47;;;12.80;75.10;;;;;;6342907;22;19995;-65
2023/12/14 11:56:05;;;;;;;12.98;8.48;;;12.80;74.90;;;;;;6315534;22;20300;-65
2023/12/14 11:58:34;;;;;;;11.60;7.53;;;12.90;74.80;;;;;;6342771;22;20010;-65
2023/12/14 12:01:17;;;;;;;12.82;7.38;;;12.90;74.60;;;;;;6343368;22;20026;-66
2023/12/14 12:03:44;;;;;;;12.90;7.88;;;12.90;73.90;;;;;;6342910;22;20342;-66
2023/12/14 12:06:25;;;;;;;12.20;7.65;;;12.90;74.00;;;;;;6342665;22;19999;-66
2023/12/14 12:08:51;;;;;;;11.15;6.88;;;13.00;74.00;;;;;;6343215;22;19998;-66
2023/12/14 12:11:19;;;;;;;12.23;7.68;;;13.10;73.40;;;;;;6342609;22;20304;-65
2023/12/14 12:13:54;;;;;;;13.13;8.30;;;13.10;73.30;;;;;;6341999;22;19995;-66
2023/12/14 12:16:21;;;;;;;11.90;7.10;;;13.10;73.60;;;;;;6343293;22;19995;-66
2023/12/14 12:18:46;;;;;;;10.10;6.60;;;13.10;73.10;;;;;;6342535;22;19995;-66
2023/12/14 12:21:13;;;;;;;9.70;6.40;;;13.20;72.40;;;;;;6343209;22;20322;-67
2023/12/14 12:23:41;;;;;;;12.25;7.80;;;13.10;72.60;;;;;;6342153;22;20381;-67
2023/12/14 12:26:08;;;;;;;16.45;9.85;;;13.20;72.90;;;;;;6342890;22;19995;-67
2023/12/14 12:28:34;;;;;;;16.05;10.02;;;13.20;72.80;;;;;;6343109;22;20028;-66
2023/12/14 12:31:00;;;;;;;19.17;10.50;;;13.20;73.10;;;;;;6343089;22;20030;-67
2023/12/14 12:33:26;;;;;;;19.75;11.15;;;13.20;73.30;;;;;;6342877;22;20411;-67
2023/12/14 12:35:54;;;;;;;21.58;12.98;;;13.20;73.10;;;;;;6342436;22;20010;-67
2023/12/14 12:38:20;;;;;;;21.95;11.35;;;13.20;72.60;;;;;;6315224;22;19999;-67
2023/12/14 12:40:46;;;;;;;22.27;12.65;;;13.20;73.10;;;;;;6315114;22;20045;-67
2023/12/14 12:43:13;;;;;;;20.27;11.82;;;13.20;73.30;;;;;;6342654;22;20002;-66